createdAt,value
2023-02-18T00:01:51.449Z,4.53
2023-02-18T00:04:18.077Z,4.53
2023-02-18T00:06:44.445Z,5.38
2023-02-18T00:09:11.726Z,4.82
2023-02-18T00:11:39.130Z,5.35
2023-02-18T00:14:11.694Z,3.88
2023-02-18T00:16:38.068Z,3.88
2023-02-18T00:19:06.852Z,5.45
2023-02-18T00:21:34.786Z,4.85
2023-02-18T00:24:01.792Z,5.55
2023-02-18T00:26:28.474Z,5.95
2023-02-18T00:28:55.156Z,4.20
2023-02-18T00:31:24.828Z,4.85
2023-02-18T00:33:52.014Z,4.20
2023-02-18T00:36:21.811Z,4.40
2023-02-18T00:38:53.881Z,4.40
2023-02-18T00:41:22.277Z,5.10
2023-02-18T00:43:48.643Z,4.53
2023-02-18T00:46:15.354Z,5.28
2023-02-18T00:48:41.908Z,4.03
2023-02-18T00:51:10.121Z,5.85
2023-02-18T00:53:37.455Z,4.22
2023-02-18T00:56:04.253Z,5.72
2023-02-18T00:58:31.191Z,4.82
2023-02-18T01:00:59.077Z,4.68
2023-02-18T01:03:25.872Z,4.97
2023-02-18T01:05:52.345Z,5.20
2023-02-18T01:08:20.728Z,4.60
2023-02-18T01:10:49.546Z,4.63
2023-02-18T01:13:16.748Z,4.18
2023-02-18T01:15:46.211Z,5.32
2023-02-18T01:18:13.836Z,4.22
2023-02-18T01:20:41.838Z,5.00
2023-02-18T01:23:08.590Z,4.95
2023-02-18T01:25:35.269Z,4.38
2023-02-18T01:28:02.075Z,4.95
2023-02-18T01:30:28.765Z,5.45
2023-02-18T01:32:56.408Z,4.35
2023-02-18T01:35:24.172Z,3.63
2023-02-18T01:37:51.095Z,5.20
2023-02-18T01:40:21.804Z,4.60
2023-02-18T01:42:48.945Z,4.97
2023-02-18T01:45:37.876Z,4.20
2023-02-18T01:48:17.171Z,4.55
2023-02-18T01:50:47.561Z,5.43
2023-02-18T01:53:16.689Z,4.05
2023-02-18T01:55:44.788Z,5.13
2023-02-18T01:58:13.171Z,4.38
2023-02-18T02:00:39.840Z,4.40
2023-02-18T02:03:06.307Z,4.40
2023-02-18T02:05:33.891Z,4.03
2023-02-18T02:08:01.906Z,4.70
2023-02-18T02:10:45.167Z,4.35
2023-02-18T02:13:19.515Z,5.93
2023-02-18T02:15:58.585Z,5.80
2023-02-18T02:18:40.156Z,5.05
2023-02-18T02:21:29.838Z,4.47
2023-02-18T02:24:02.050Z,4.65
2023-02-18T02:26:57.590Z,4.78
2023-02-18T02:30:02.233Z,5.72
2023-02-18T02:33:00.349Z,4.13
2023-02-18T02:35:37.487Z,4.18
2023-02-18T02:38:27.399Z,4.25
2023-02-18T02:41:16.086Z,5.85
2023-02-18T02:44:11.910Z,3.47
2023-02-18T02:46:45.979Z,4.43
2023-02-18T02:49:45.211Z,4.70
2023-02-18T02:52:26.720Z,3.33
2023-02-18T02:54:53.208Z,4.13
2023-02-18T02:57:19.659Z,4.13
2023-02-18T03:00:14.108Z,4.93
2023-02-18T03:02:49.340Z,4.68
2023-02-18T03:05:25.130Z,4.00
2023-02-18T03:08:10.598Z,4.03
2023-02-18T03:11:04.292Z,3.95
2023-02-18T03:14:05.390Z,3.67
2023-02-18T03:16:45.593Z,3.72
2023-02-18T03:19:35.056Z,3.50
2023-02-18T03:22:10.330Z,3.58
2023-02-18T03:24:50.839Z,3.22
2023-02-18T03:27:25.058Z,4.05
2023-02-18T03:29:57.581Z,3.40
2023-02-18T03:32:27.129Z,4.85
2023-02-18T03:35:00.194Z,3.53
2023-02-18T03:37:27.224Z,3.60
2023-02-18T03:39:59.691Z,3.35
2023-02-18T03:42:28.135Z,3.50
2023-02-18T03:44:54.530Z,3.85
2023-02-18T03:47:23.910Z,4.07
2023-02-18T03:49:50.270Z,3.30
2023-02-18T03:52:17.064Z,3.08
2023-02-18T03:54:43.456Z,3.08
2023-02-18T03:57:09.859Z,3.92
2023-02-18T03:59:36.208Z,3.40
2023-02-18T04:02:02.653Z,3.50
2023-02-18T04:04:30.174Z,4.05
2023-02-18T04:06:56.622Z,3.40
2023-02-18T04:09:22.972Z,3.78
2023-02-18T04:11:49.396Z,2.47
2023-02-18T04:14:15.831Z,2.88
2023-02-18T04:16:42.384Z,3.75
2023-02-18T04:19:09.101Z,3.47
2023-02-18T04:21:40.254Z,3.15
2023-02-18T04:24:06.661Z,3.33
2023-02-18T04:26:33.458Z,3.33
2023-02-18T04:28:59.845Z,3.58
2023-02-18T04:31:26.442Z,4.10
2023-02-18T04:33:52.906Z,2.95
2023-02-18T04:36:19.368Z,3.28
2023-02-18T04:38:45.780Z,3.60
2023-02-18T04:41:12.752Z,3.72
2023-02-18T04:43:39.218Z,3.50
2023-02-18T04:46:05.631Z,2.88
2023-02-18T04:48:32.123Z,3.13
2023-02-18T04:50:58.468Z,3.00
2023-02-18T04:53:24.852Z,3.75
2023-02-18T04:55:52.288Z,3.10
2023-02-18T04:58:19.664Z,2.83
2023-02-18T05:00:46.309Z,3.10
2023-02-18T05:03:13.153Z,2.95
2023-02-18T05:05:39.687Z,3.30
2023-02-18T05:08:06.051Z,3.00
2023-02-18T05:10:32.425Z,3.10
2023-02-18T05:12:58.846Z,3.30
2023-02-18T05:15:25.406Z,4.13
2023-02-18T05:17:52.029Z,2.67
2023-02-18T05:20:18.614Z,2.40
2023-02-18T05:22:44.956Z,3.40
2023-02-18T05:25:11.322Z,2.38
2023-02-18T05:27:37.837Z,3.53
2023-02-18T05:30:04.884Z,3.85
2023-02-18T05:32:31.242Z,2.38
2023-02-18T05:34:57.602Z,2.70
2023-02-18T05:37:23.997Z,3.05
2023-02-18T05:39:50.409Z,3.58
2023-02-18T05:42:16.852Z,4.15
2023-02-18T05:44:43.188Z,3.03
2023-02-18T05:47:11.760Z,3.10
2023-02-18T05:49:40.026Z,2.80
2023-02-18T05:52:06.999Z,3.67
2023-02-18T05:54:34.086Z,2.85
2023-02-18T05:57:00.472Z,3.15
2023-02-18T05:59:27.297Z,3.40
2023-02-18T06:01:54.397Z,2.63
2023-02-18T06:04:21.041Z,3.30
2023-02-18T06:06:47.410Z,3.30
2023-02-18T06:09:14.048Z,3.15
2023-02-18T06:11:42.048Z,3.88
2023-02-18T06:14:08.625Z,2.40
2023-02-18T06:16:35.008Z,3.17
2023-02-18T06:19:02.205Z,3.03
2023-02-18T06:21:28.565Z,3.75
2023-02-18T06:23:54.978Z,3.10
2023-02-18T06:26:21.367Z,2.72
2023-02-18T06:28:47.726Z,2.58
2023-02-18T06:31:14.235Z,2.47
2023-02-18T06:33:40.702Z,2.78
2023-02-18T06:36:09.622Z,2.25
2023-02-18T06:38:36.186Z,2.58
2023-02-18T06:41:02.834Z,2.65
2023-02-18T06:43:29.373Z,2.45
2023-02-18T06:45:55.915Z,2.15
2023-02-18T06:48:23.648Z,2.38
2023-02-18T06:50:50.201Z,2.70
2023-02-18T06:53:19.858Z,2.30
2023-02-18T06:55:46.616Z,2.35
2023-02-18T06:58:14.210Z,2.40
2023-02-18T07:00:41.632Z,2.33
2023-02-18T07:03:08.379Z,2.10
2023-02-18T07:05:34.966Z,2.40
2023-02-18T07:08:01.805Z,2.33
2023-02-18T07:10:28.382Z,2.38
2023-02-18T07:12:54.771Z,2.83
2023-02-18T07:15:24.347Z,2.72
2023-02-18T07:17:51.925Z,2.92
2023-02-18T07:20:20.217Z,2.20
2023-02-18T07:22:47.350Z,2.55
2023-02-18T07:25:14.181Z,3.30
2023-02-18T07:27:40.990Z,3.40
2023-02-18T07:30:08.082Z,2.88
2023-02-18T07:32:34.853Z,3.58
2023-02-18T07:35:01.204Z,3.10
2023-02-18T07:37:27.617Z,2.65
2023-02-18T07:39:54.010Z,2.72
2023-02-18T07:42:20.391Z,2.92
2023-02-18T07:44:46.869Z,3.85
2023-02-18T07:47:15.639Z,3.22
2023-02-18T07:49:42.100Z,3.25
2023-02-18T07:52:08.539Z,3.45
2023-02-18T07:54:34.977Z,3.65
2023-02-18T07:57:01.325Z,2.90
2023-02-18T07:59:27.746Z,3.05
2023-02-18T08:01:54.152Z,3.35
2023-02-18T08:04:20.638Z,3.65
2023-02-18T08:06:49.688Z,4.25
2023-02-18T08:09:17.208Z,3.00
2023-02-18T08:11:43.932Z,2.90
2023-02-18T08:14:11.537Z,2.50
2023-02-18T08:16:38.131Z,4.05
2023-02-18T08:19:04.672Z,3.50
2023-02-18T08:21:31.642Z,3.50
2023-02-18T08:23:59.591Z,2.97
2023-02-18T08:26:26.404Z,3.53
2023-02-18T08:28:52.909Z,3.40
2023-02-18T08:31:21.878Z,3.30
2023-02-18T08:33:49.042Z,2.78
2023-02-18T08:36:15.709Z,3.83
2023-02-18T08:38:42.178Z,3.30
2023-02-18T08:41:09.346Z,3.97
2023-02-18T08:43:36.525Z,3.42
2023-02-18T08:46:03.452Z,3.40
2023-02-18T08:48:30.394Z,2.78
2023-02-18T08:50:57.029Z,3.15
2023-02-18T08:53:23.413Z,3.85
2023-02-18T08:55:49.950Z,4.03
2023-02-18T08:58:17.239Z,3.50
2023-02-18T09:00:44.983Z,3.60
2023-02-18T09:03:15.504Z,3.40
2023-02-18T09:05:42.179Z,4.95
2023-02-18T09:08:08.796Z,4.63
2023-02-18T09:10:35.202Z,4.88
2023-02-18T09:13:01.700Z,4.50
2023-02-18T09:15:28.154Z,3.92
2023-02-18T09:17:54.561Z,4.50
2023-02-18T09:20:21.396Z,5.15
2023-02-18T09:22:47.760Z,3.70
2023-02-18T09:25:14.218Z,4.68
2023-02-18T09:27:40.620Z,4.00
2023-02-18T09:30:11.588Z,3.92
2023-02-18T09:32:38.214Z,4.13
2023-02-18T09:35:05.389Z,4.57
2023-02-18T09:37:31.774Z,4.70
2023-02-18T09:39:58.181Z,4.82
2023-02-18T09:42:31.168Z,6.22
2023-02-18T09:45:02.301Z,6.82
2023-02-18T09:47:41.830Z,6.68
2023-02-18T09:50:13.130Z,7.88
2023-02-18T09:52:39.567Z,8.10
2023-02-18T09:55:27.391Z,9.48
2023-02-18T09:57:57.115Z,9.45
2023-02-18T10:00:36.610Z,10.57
2023-02-18T10:03:10.540Z,10.95
2023-02-18T10:05:41.069Z,10.20
2023-02-18T10:08:21.700Z,11.73
2023-02-18T10:10:48.311Z,12.40
2023-02-18T10:13:26.422Z,10.60
2023-02-18T10:15:53.303Z,11.00
2023-02-18T10:18:59.888Z,12.13
2023-02-18T10:21:36.102Z,12.02
2023-02-18T10:24:29.419Z,13.25
2023-02-18T10:26:56.928Z,13.52
2023-02-18T10:29:23.793Z,15.18
2023-02-18T10:31:57.306Z,15.48
2023-02-18T10:34:45.829Z,14.10
2023-02-18T10:37:41.614Z,14.10
2023-02-18T10:40:10.947Z,12.05
2023-02-18T10:42:43.528Z,14.10
2023-02-18T10:45:25.025Z,15.63
2023-02-18T10:48:07.696Z,13.88
2023-02-18T10:50:39.624Z,13.60
2023-02-18T10:53:34.467Z,13.18
2023-02-18T10:56:01.062Z,13.13
2023-02-18T10:58:46.876Z,13.63
2023-02-18T11:01:15.769Z,13.43
2023-02-18T11:03:43.913Z,12.18
2023-02-18T11:06:19.837Z,11.85
2023-02-18T11:08:47.602Z,11.82
2023-02-18T11:11:20.854Z,11.75
2023-02-18T11:13:56.473Z,12.50
2023-02-18T11:16:36.445Z,13.43
2023-02-18T11:19:04.527Z,12.45
2023-02-18T11:21:35.995Z,13.48
2023-02-18T11:24:16.709Z,13.70
2023-02-18T11:26:46.781Z,15.00
2023-02-18T11:29:22.360Z,13.15
2023-02-18T11:31:52.235Z,12.30
2023-02-18T11:34:23.049Z,13.30
2023-02-18T11:36:50.478Z,11.57
2023-02-18T11:39:26.550Z,11.82
2023-02-18T11:42:00.920Z,13.00
2023-02-18T11:44:30.984Z,11.85
2023-02-18T11:47:20.028Z,12.10
2023-02-18T11:50:08.289Z,12.25
2023-02-18T11:52:43.919Z,11.75
2023-02-18T11:55:22.895Z,12.77
2023-02-18T11:57:56.092Z,11.45
2023-02-18T12:00:43.191Z,10.90
2023-02-18T12:03:35.258Z,10.45
2023-02-18T12:06:10.192Z,8.63
2023-02-18T12:08:51.357Z,7.20
2023-02-18T12:11:52.824Z,4.25
2023-02-18T12:14:23.966Z,2.00
2023-02-18T12:17:15.647Z,1.60
2023-02-18T12:20:06.740Z,1.20
2023-02-18T12:22:43.209Z,1.20
2023-02-18T12:25:27.788Z,1.20
2023-02-18T12:28:08.702Z,1.10
2023-02-18T12:30:52.585Z,1.30
2023-02-18T12:33:45.901Z,1.90
2023-02-18T12:36:27.416Z,1.60
2023-02-18T12:39:03.313Z,1.38
2023-02-18T12:41:45.918Z,2.17
2023-02-18T12:44:18.413Z,2.20
2023-02-18T12:47:17.248Z,2.50
2023-02-18T12:50:00.145Z,2.33
2023-02-18T12:52:49.058Z,2.28
2023-02-18T12:55:27.191Z,2.90
2023-02-18T12:58:14.804Z,2.67
2023-02-18T13:01:04.489Z,2.50
2023-02-18T13:03:48.103Z,3.00
2023-02-18T13:06:37.115Z,2.85
2023-02-18T13:09:15.349Z,3.13
2023-02-18T13:12:05.016Z,2.83
2023-02-18T13:14:36.378Z,3.03
2023-02-18T13:17:06.281Z,3.08
2023-02-18T13:19:47.704Z,3.45
2023-02-18T13:22:16.579Z,3.15
2023-02-18T13:24:46.831Z,3.20
2023-02-18T13:27:29.523Z,3.70
2023-02-18T13:30:23.974Z,4.25
2023-02-18T13:32:56.443Z,4.18
2023-02-18T13:35:33.405Z,4.57
2023-02-18T13:38:16.404Z,4.05
2023-02-18T13:40:47.030Z,3.40
2023-02-18T13:43:27.215Z,4.63
2023-02-18T13:46:08.613Z,3.40
2023-02-18T13:48:53.294Z,3.50
2023-02-18T13:51:38.717Z,3.63
2023-02-18T13:54:11.093Z,3.17
2023-02-18T13:56:43.458Z,3.60
2023-02-18T13:59:20.162Z,3.75
2023-02-18T14:01:49.961Z,2.97
2023-02-18T14:04:34.509Z,3.28
2023-02-18T14:07:25.904Z,3.20
2023-02-18T14:09:54.971Z,3.10
2023-02-18T14:12:41.328Z,3.92
2023-02-18T14:15:19.969Z,3.13
2023-02-18T14:18:07.436Z,3.08
2023-02-18T14:20:36.992Z,2.53
2023-02-18T14:23:18.237Z,2.10
2023-02-18T14:25:57.120Z,1.80
2023-02-18T14:28:36.034Z,2.10
2023-02-18T14:31:12.693Z,2.10
2023-02-18T14:34:14.087Z,2.17
2023-02-18T14:36:59.623Z,2.20
2023-02-18T14:39:50.688Z,2.10
2023-02-18T14:42:26.014Z,2.30
2023-02-18T14:45:02.205Z,2.67
2023-02-18T14:48:07.245Z,2.70
2023-02-18T14:50:35.900Z,2.60
2023-02-18T14:53:08.098Z,2.90
2023-02-18T14:55:38.823Z,2.92
2023-02-18T14:58:12.832Z,2.90
2023-02-18T15:00:40.998Z,2.03
2023-02-18T15:03:16.281Z,2.35
2023-02-18T15:05:43.908Z,1.92
2023-02-18T15:08:24.801Z,2.10
2023-02-18T15:11:03.609Z,2.10
2023-02-18T15:13:32.897Z,1.73
2023-02-18T15:16:03.905Z,1.98
2023-02-18T15:18:40.863Z,1.92
2023-02-18T15:21:10.074Z,1.73
2023-02-18T15:23:39.681Z,1.90
2023-02-18T15:26:07.370Z,1.80
2023-02-18T15:28:35.101Z,1.70
2023-02-18T15:31:04.295Z,2.30
2023-02-18T15:33:30.743Z,1.60
2023-02-18T15:36:04.620Z,1.75
2023-02-18T15:38:32.144Z,1.52
2023-02-18T15:40:59.602Z,1.70
2023-02-18T15:43:27.339Z,1.55
2023-02-18T15:45:56.868Z,1.90
2023-02-18T15:48:34.419Z,1.30
2023-02-18T15:51:16.294Z,1.38
2023-02-18T15:53:47.162Z,1.67
2023-02-18T15:56:21.538Z,1.40
2023-02-18T15:58:47.966Z,1.63
2023-02-18T16:01:29.109Z,1.20
2023-02-18T16:03:56.092Z,1.42
2023-02-18T16:06:26.962Z,1.55
2023-02-18T16:09:19.004Z,1.50
2023-02-18T16:11:48.482Z,1.67
2023-02-18T16:14:29.190Z,1.90
2023-02-18T16:17:24.544Z,2.13
2023-02-18T16:20:07.125Z,2.08
2023-02-18T16:22:37.309Z,1.75
2023-02-18T16:25:08.052Z,2.00
2023-02-18T16:27:37.482Z,1.70
2023-02-18T16:30:16.817Z,1.90
2023-02-18T16:32:43.882Z,2.00
2023-02-18T16:35:11.747Z,2.30
2023-02-18T16:37:38.773Z,2.15
2023-02-18T16:40:39.741Z,2.17
2023-02-18T16:43:15.289Z,2.25
2023-02-18T16:45:47.029Z,2.40
2023-02-18T16:48:33.617Z,2.40
2023-02-18T16:51:03.019Z,2.13
2023-02-18T16:53:29.437Z,2.50
2023-02-18T16:55:56.147Z,2.33
2023-02-18T16:58:22.693Z,2.10
2023-02-18T17:00:51.914Z,2.42
2023-02-18T17:03:18.772Z,2.30
2023-02-18T17:05:45.329Z,2.28
2023-02-18T17:08:20.380Z,2.17
2023-02-18T17:10:49.257Z,1.90
2023-02-18T17:13:20.879Z,2.30
2023-02-18T17:15:50.236Z,2.00
2023-02-18T17:18:16.956Z,1.90
2023-02-18T17:20:44.393Z,2.00
2023-02-18T17:23:15.468Z,2.38
2023-02-18T17:25:42.300Z,2.05
2023-02-18T17:28:08.718Z,2.33
2023-02-18T17:30:41.721Z,2.20
2023-02-18T17:33:14.930Z,2.40
2023-02-18T17:35:41.459Z,2.33
2023-02-18T17:38:16.072Z,2.47
2023-02-18T17:40:43.470Z,2.78
2023-02-18T17:43:13.045Z,2.50
2023-02-18T17:45:49.783Z,2.50
2023-02-18T17:48:16.764Z,2.53
2023-02-18T17:50:43.125Z,2.90
2023-02-18T17:53:11.544Z,3.30
2023-02-18T17:55:38.626Z,3.28
2023-02-18T17:58:05.043Z,3.80
2023-02-18T18:00:38.693Z,4.05
2023-02-18T18:03:05.497Z,4.10
2023-02-18T18:05:37.706Z,4.60
2023-02-18T18:08:04.928Z,4.43
2023-02-18T18:10:35.741Z,5.18
2023-02-18T18:13:04.961Z,4.93
2023-02-18T18:15:39.814Z,5.40
2023-02-18T18:18:06.890Z,5.55
2023-02-18T18:20:35.192Z,5.47
2023-02-18T18:23:04.198Z,6.82
2023-02-18T18:25:33.320Z,7.10
2023-02-18T18:27:59.694Z,6.88
2023-02-18T18:30:30.791Z,7.40
2023-02-18T18:32:58.116Z,7.90
2023-02-18T18:35:31.180Z,8.23
2023-02-18T18:37:57.789Z,8.30
2023-02-18T18:40:28.040Z,9.25
2023-02-18T18:42:58.987Z,8.35
2023-02-18T18:45:28.845Z,8.13
2023-02-18T18:47:56.073Z,9.07
2023-02-18T18:50:24.510Z,9.88
2023-02-18T18:52:52.264Z,9.50
2023-02-18T18:55:31.455Z,10.93
2023-02-18T18:57:59.120Z,11.25
2023-02-18T19:00:38.426Z,11.82
2023-02-18T19:03:05.918Z,12.05
2023-02-18T19:05:35.613Z,11.60
2023-02-18T19:08:05.107Z,12.70
2023-02-18T19:10:51.533Z,11.75
2023-02-18T19:13:19.085Z,14.95
2023-02-18T19:15:46.285Z,12.95
2023-02-18T19:18:16.333Z,14.52
2023-02-18T19:20:43.083Z,14.85
2023-02-18T19:23:09.853Z,14.02
2023-02-18T19:25:36.446Z,14.18
2023-02-18T19:28:03.695Z,14.30
2023-02-18T19:30:33.362Z,13.27
2023-02-18T19:33:01.425Z,14.75
2023-02-18T19:35:29.754Z,14.70
2023-02-18T19:37:56.668Z,15.30
2023-02-18T19:40:25.764Z,15.77
2023-02-18T19:42:52.805Z,14.45
2023-02-18T19:45:20.574Z,14.65
2023-02-18T19:47:47.100Z,15.93
2023-02-18T19:50:15.876Z,14.93
2023-02-18T19:52:42.501Z,14.43
2023-02-18T19:55:10.138Z,14.38
2023-02-18T19:57:36.653Z,14.10
2023-02-18T20:00:08.424Z,14.02
2023-02-18T20:02:39.511Z,14.68
2023-02-18T20:05:07.006Z,14.68
2023-02-18T20:07:34.199Z,13.68
2023-02-18T20:10:00.556Z,14.65
2023-02-18T20:12:27.913Z,13.60
2023-02-18T20:14:54.310Z,13.32
2023-02-18T20:17:20.702Z,13.80
2023-02-18T20:19:47.244Z,13.88
2023-02-18T20:22:13.671Z,13.57
2023-02-18T20:24:40.295Z,13.88
2023-02-18T20:27:08.700Z,12.48
2023-02-18T20:29:36.276Z,12.38
2023-02-18T20:32:05.018Z,12.35
2023-02-18T20:34:32.712Z,12.35
2023-02-18T20:36:59.508Z,11.27
2023-02-18T20:39:26.076Z,11.10
2023-02-18T20:41:52.529Z,11.57
2023-02-18T20:44:20.052Z,10.93
2023-02-18T20:46:49.390Z,11.15
2023-02-18T20:49:18.362Z,10.15
2023-02-18T20:51:45.510Z,10.23
2023-02-18T20:54:15.683Z,10.48
2023-02-18T20:56:45.926Z,10.30
2023-02-18T20:59:17.609Z,8.43
2023-02-18T21:01:45.189Z,8.18
2023-02-18T21:04:16.578Z,9.15
2023-02-18T21:06:45.363Z,7.93
2023-02-18T21:09:13.321Z,9.02
2023-02-18T21:11:40.282Z,8.68
2023-02-18T21:14:07.085Z,9.38
2023-02-18T21:16:38.423Z,9.43
2023-02-18T21:19:06.315Z,8.25
2023-02-18T21:21:32.712Z,8.40
2023-02-18T21:23:59.119Z,7.63
2023-02-18T21:26:26.829Z,7.78
2023-02-18T21:28:56.566Z,6.93
2023-02-18T21:31:28.141Z,8.25
2023-02-18T21:33:55.210Z,6.60
2023-02-18T21:36:22.347Z,6.93
2023-02-18T21:38:53.905Z,6.18
2023-02-18T21:41:20.433Z,6.32
2023-02-18T21:43:48.087Z,6.15
2023-02-18T21:46:22.992Z,6.47
2023-02-18T21:49:08.214Z,6.75
2023-02-18T21:51:57.522Z,6.15
2023-02-18T21:54:29.737Z,7.72
2023-02-18T21:56:57.285Z,6.57
2023-02-18T21:59:26.777Z,7.13
2023-02-18T22:01:53.797Z,6.70
2023-02-18T22:04:21.871Z,6.25
2023-02-18T22:06:48.291Z,7.10
2023-02-18T22:09:14.714Z,6.53
2023-02-18T22:11:44.390Z,6.53
2023-02-18T22:14:12.083Z,6.80
2023-02-18T22:16:38.875Z,7.07
2023-02-18T22:19:05.385Z,6.95
2023-02-18T22:21:32.167Z,7.78
2023-02-18T22:23:58.583Z,7.72
2023-02-18T22:26:25.000Z,7.00
2023-02-18T22:28:56.826Z,7.78
2023-02-18T22:31:25.167Z,7.18
2023-02-18T22:33:52.253Z,6.93
2023-02-18T22:36:20.912Z,7.50
2023-02-18T22:38:47.791Z,7.32
2023-02-18T22:41:15.875Z,7.60
2023-02-18T22:43:42.489Z,7.05
2023-02-18T22:46:11.806Z,6.63
2023-02-18T22:48:39.141Z,7.30
2023-02-18T22:51:07.960Z,7.38
2023-02-18T22:53:35.275Z,8.73
2023-02-18T22:56:07.182Z,8.07
2023-02-18T22:58:34.289Z,7.72
2023-02-18T23:01:00.807Z,7.60
2023-02-18T23:03:28.169Z,8.13
2023-02-18T23:05:55.600Z,9.07
2023-02-18T23:08:22.386Z,7.82
2023-02-18T23:10:59.445Z,8.80
2023-02-18T23:13:25.820Z,9.40
2023-02-18T23:15:59.387Z,8.10
2023-02-18T23:18:26.618Z,8.23
2023-02-18T23:21:12.270Z,8.02
2023-02-18T23:23:39.153Z,7.80
2023-02-18T23:26:05.893Z,7.43
2023-02-18T23:28:47.529Z,7.13
2023-02-18T23:31:19.875Z,7.93
2023-02-18T23:33:49.375Z,7.32
2023-02-18T23:36:18.756Z,7.60
2023-02-18T23:38:49.792Z,7.80
2023-02-18T23:41:16.723Z,7.65
2023-02-18T23:43:44.121Z,7.30
2023-02-18T23:46:10.599Z,7.32
2023-02-18T23:48:38.487Z,7.80
2023-02-18T23:51:06.968Z,7.28
2023-02-18T23:53:37.254Z,7.68
2023-02-18T23:56:11.537Z,7.88
2023-02-18T23:58:38.656Z,7.75
